Time;durP1;ratioP1;P1;durP2;ratioP2;P2;SDS_P1;SDS_P2;PMS_P1;PMS_P2;Temp;Humidity;BMP_temperature;BMP_pressure;BME280_temperature;BME280_humidity;BME280_pressure;Samples;Min_cycle;Max_cycle;Signal;HPM_P1;HPM_P2
2022/12/25 00:02:28;;;;;;;1.25;1.13;;;;;;;4.71;91.67;99974.97;5100387;28;20130;-64
2022/12/25 00:04:57;;;;;;;1.80;1.67;;;;;;;4.66;91.99;99968.06;5100700;28;20404;-64
2022/12/25 00:07:26;;;;;;;0.55;0.55;;;;;;;4.58;92.14;99962.81;5100324;28;20079;-63
2022/12/25 00:09:54;;;;;;;0.93;0.90;;;;;;;4.60;91.93;99962.88;5100233;28;20039;-64
2022/12/25 00:12:23;;;;;;;0.77;0.77;;;;;;;4.56;91.64;99958.53;5110909;28;20071;-64
2022/12/25 00:14:53;;;;;;;2.57;2.37;;;;;;;4.56;91.89;99958.53;5120598;28;20068;-64
2022/12/25 00:17:23;;;;;;;0.90;0.90;;;;;;;4.53;91.91;99964.38;5121178;27;20040;-64
2022/12/25 00:19:52;;;;;;;1.75;1.63;;;;;;;4.50;92.21;99963.41;5112355;28;20122;-64
2022/12/25 00:22:21;;;;;;;2.00;1.27;;;;;;;4.51;92.02;99962.63;5100391;28;20130;-64
2022/12/25 00:24:50;;;;;;;0.68;0.68;;;;;;;4.51;92.01;99970.19;5113124;27;20374;-64
2022/12/25 00:27:19;;;;;;;1.07;0.97;;;;;;;4.50;92.13;99968.47;5134660;27;20585;-64
2022/12/25 00:29:48;;;;;;;1.52;1.42;;;;;;;4.45;92.13;99970.00;5140459;27;20126;-64
2022/12/25 00:32:17;;;;;;;1.87;1.67;;;;;;;4.39;92.10;99959.75;5120743;27;20118;-64
2022/12/25 00:34:47;;;;;;;0.70;0.70;;;;;;;4.37;91.90;99977.38;5120791;27;20096;-64
2022/12/25 00:37:16;;;;;;;0.65;0.65;;;;;;;4.33;92.08;99977.25;5120560;28;20512;-64
2022/12/25 00:39:45;;;;;;;1.00;0.98;;;;;;;4.29;92.22;99973.78;5120963;27;20047;-64
2022/12/25 00:42:20;;;;;;;1.33;1.23;;;;;;;4.31;92.02;99986.47;5120338;28;20116;-64
2022/12/25 00:44:49;;;;;;;1.25;1.15;;;;;;;4.27;92.05;99994.78;5120367;28;20768;-64
2022/12/25 00:47:18;;;;;;;;;;;;;;;4.26;92.00;100013.25;5120717;28;20047;-64
2022/12/25 00:49:48;;;;;;;1.08;1.00;;;;;;;4.29;92.46;100014.22;5121673;27;19924;-64
2022/12/25 00:52:17;;;;;;;1.23;1.13;;;;;;;4.31;92.42;100011.72;5120575;27;20081;-65
2022/12/25 00:54:46;;;;;;;1.33;1.23;;;;;;;4.23;92.16;100003.03;5120598;27;20043;-65
2022/12/25 00:57:14;;;;;;;1.17;1.00;;;;;;;4.29;92.04;100018.41;5120115;27;20050;-64
2022/12/25 00:59:43;;;;;;;1.33;1.23;;;;;;;4.31;92.31;100016.78;5120478;27;20036;-64
2022/12/25 01:04:54;;;;;;;0.65;0.65;;;;;;;4.22;92.36;100006.41;5120191;28;20058;-64
2022/12/25 01:07:26;;;;;;;1.88;1.42;;;;;;;4.23;92.28;100010.63;5120753;28;20044;-64
2022/12/25 01:12:35;;;;;;;9.23;1.90;;;;;;;4.20;92.24;100018.13;5115947;28;20562;-64
2022/12/25 01:15:06;;;;;;;0.95;0.95;;;;;;;4.19;92.66;100026.50;5096461;28;20097;-64
2022/12/25 01:17:35;;;;;;;3.33;1.73;;;;;;;4.16;92.42;100021.34;5096614;28;20040;-64
2022/12/25 01:20:06;;;;;;;5.05;2.00;;;;;;;4.18;92.40;100029.84;5096925;28;20032;-64
2022/12/25 01:22:35;;;;;;;1.17;1.08;;;;;;;4.21;92.40;100030.78;5096607;28;20044;-64
2022/12/25 01:25:05;;;;;;;8.18;4.65;;;;;;;4.22;92.56;100026.59;5096255;28;20044;-64
2022/12/25 01:27:34;;;;;;;1.98;1.88;;;;;;;4.20;92.46;100028.25;5096795;28;20405;-64
2022/12/25 01:30:03;;;;;;;4.55;2.95;;;;;;;4.18;92.50;100023.13;5096169;28;20044;-64
2022/12/25 01:32:31;;;;;;;1.13;1.07;;;;;;;4.18;92.92;100014.69;5099786;28;20032;-65
2022/12/25 01:35:00;;;;;;;2.58;2.38;;;;;;;4.12;92.54;100019.56;5096806;28;20501;-64
2022/12/25 01:37:30;;;;;;;8.50;4.23;;;;;;;4.08;92.63;100009.34;5106557;28;20036;-64
2022/12/25 01:39:59;;;;;;;12.15;4.43;;;;;;;4.07;92.91;100010.19;5106178;28;20797;-63
2022/12/25 01:42:29;;;;;;;1.60;1.50;;;;;;;4.05;92.43;100006.72;5108385;28;20050;-64
2022/12/25 01:45:15;;;;;;;;;;;;;;;4.05;92.89;100013.47;5097453;28;20090;-64
2022/12/25 01:47:44;;;;;;;1.02;1.00;;;;;;;4.04;93.11;100011.75;5110592;28;19997;-64
2022/12/25 01:50:12;;;;;;;2.08;1.88;;;;;;;4.03;92.86;100026.03;5100604;28;20070;-64
2022/12/25 01:52:43;;;;;;;2.50;2.30;;;;;;;4.04;92.53;100027.75;5110560;28;20063;-64
2022/12/25 01:55:12;;;;;;;2.10;1.50;;;;;;;4.00;92.84;100015.88;5097532;28;20040;-64
2022/12/25 01:57:43;;;;;;;1.08;1.05;;;;;;;4.01;92.68;100031.84;5102625;28;20047;-65
2022/12/25 02:00:13;;;;;;;2.65;2.28;;;;;;;3.99;92.87;100039.38;5097260;28;20044;-65
2022/12/25 02:02:43;;;;;;;0.70;0.70;;;;;;;3.96;93.06;100056.97;5096314;28;20086;-65
2022/12/25 02:05:19;;;;;;;1.58;1.45;;;;;;;3.95;92.99;100060.31;5098421;28;20043;-64
2022/12/25 02:07:50;;;;;;;3.13;2.40;;;;;;;3.93;92.66;100058.53;5107154;28;20138;-65
2022/12/25 02:10:19;;;;;;;2.05;1.95;;;;;;;3.88;92.90;100063.44;5115773;28;20058;-64
2022/12/25 02:12:49;;;;;;;0.55;0.55;;;;;;;3.81;92.37;100064.06;5096887;28;20040;-65
2022/12/25 02:15:20;;;;;;;3.70;2.70;;;;;;;3.78;93.07;100068.16;5095873;28;20436;-64
2022/12/25 02:17:57;;;;;;;1.45;1.35;;;;;;;3.76;92.42;100065.59;5095212;28;20047;-64
2022/12/25 02:20:51;;;;;;;2.22;2.03;;;;;;;3.71;92.33;100062.06;5094584;28;20469;-64
2022/12/25 02:23:49;;;;;;;3.00;2.53;;;;;;;3.75;93.11;100068.91;5121160;27;20054;-64
2022/12/25 02:26:36;;;;;;;1.13;1.05;;;;;;;3.77;92.90;100066.41;5115501;28;20052;-64
2022/12/25 02:29:14;;;;;;;5.93;3.03;;;;;;;3.75;92.92;100063.84;5115403;28;20048;-65
2022/12/25 02:31:53;;;;;;;1.20;1.10;;;;;;;3.75;92.90;100065.50;5115376;28;20130;-64
2022/12/25 02:34:30;;;;;;;0.90;0.90;;;;;;;3.64;92.62;100042.47;5115936;28;20078;-65
2022/12/25 02:37:07;;;;;;;3.53;3.22;;;;;;;3.76;92.30;100064.72;5099444;28;20499;-65
2022/12/25 03:07:00;;;;;;;3.03;2.60;;;;;;;3.63;92.76;100071.03;5110306;28;20051;-64
2022/12/25 03:12:22;;;;;;;3.17;2.97;;;;;;;3.66;92.47;100071.13;5096353;28;20044;-65
2022/12/25 03:17:33;;;;;;;2.15;2.05;;;;;;;3.63;92.71;100078.59;5108813;28;20089;-65
2022/12/25 03:28:06;;;;;;;1.90;1.77;;;;;;;3.65;92.88;100076.97;5110547;28;20035;-66
2022/12/25 03:33:36;;;;;;;2.47;2.30;;;;;;;3.67;92.62;100067.78;5114008;28;20055;-64
2022/12/25 03:36:20;;;;;;;6.10;4.57;;;;;;;3.65;92.42;100076.13;5105511;28;20040;-65
2022/12/25 04:38:19;;;;;;;6.78;2.22;;;;;;;3.37;93.50;100097.03;5093078;28;20052;-64
2022/12/25 04:40:48;;;;;;;1.27;1.17;;;;;;;3.30;92.80;100102.69;5093515;28;20083;-65
2022/12/25 04:43:17;;;;;;;0.85;0.85;;;;;;;3.23;93.28;100100.75;5105180;28;22270;-64
2022/12/25 04:45:52;;;;;;;2.35;2.17;;;;;;;3.20;93.14;100105.69;5102182;28;20051;-64
2022/12/25 04:48:21;;;;;;;1.25;1.15;;;;;;;3.13;92.83;100104.63;5115265;28;20067;-64
2022/12/25 04:50:50;;;;;;;1.73;1.53;;;;;;;3.15;93.02;100112.22;5108374;28;20127;-65
2022/12/25 04:53:21;;;;;;;2.35;1.23;;;;;;;3.15;93.32;100112.22;5115163;28;20046;-64
2022/12/25 04:55:49;;;;;;;1.42;1.33;;;;;;;3.16;93.04;100122.38;5108756;28;20493;-65
2022/12/25 04:58:18;;;;;;;1.35;1.25;;;;;;;3.20;93.53;100125.84;5108720;28;20125;-64
2022/12/25 05:00:47;;;;;;;3.40;3.10;;;;;;;3.27;92.95;100125.28;5101793;28;20517;-64
2022/12/25 05:03:15;;;;;;;1.52;1.38;;;;;;;3.31;93.68;100130.47;5111002;28;20050;-64
2022/12/25 05:05:44;;;;;;;7.68;3.88;;;;;;;3.33;92.82;100138.13;5114917;28;20060;-64
2022/12/25 05:08:13;;;;;;;11.85;3.60;;;;;;;3.32;93.34;100141.44;5110511;28;20570;-64
2022/12/25 05:10:43;;;;;;;3.33;2.40;;;;;;;3.31;93.21;100139.72;5105475;28;20126;-64
2022/12/25 05:13:12;;;;;;;2.60;2.28;;;;;;;3.27;93.69;100132.84;5106398;28;20408;-65
2022/12/25 05:15:41;;;;;;;1.93;1.80;;;;;;;3.24;93.57;100135.25;5100830;28;20039;-65
2022/12/25 05:18:10;;;;;;;2.78;2.28;;;;;;;3.14;93.68;100136.56;5104318;28;20040;-64
2022/12/25 05:20:39;;;;;;;6.37;2.80;;;;;;;3.03;93.57;100142.91;5095794;28;20052;-65
2022/12/25 05:23:10;;;;;;;0.88;0.88;;;;;;;2.88;93.54;100146.53;5112364;28;20046;-65
2022/12/25 05:25:40;;;;;;;3.03;2.30;;;;;;;2.72;93.58;100135.88;5107909;28;20054;-65
2022/12/25 05:28:10;;;;;;;4.97;3.00;;;;;;;2.74;93.63;100138.44;5101829;28;20040;-64
2022/12/25 05:30:39;;;;;;;3.00;2.63;;;;;;;2.73;93.69;100151.88;5110203;28;20075;-64
2022/12/25 05:33:08;;;;;;;5.32;2.20;;;;;;;2.72;93.30;100145.09;5099771;28;20032;-65
2022/12/25 05:35:37;;;;;;;1.55;1.45;;;;;;;2.68;93.47;100144.13;5104606;28;20081;-66
2022/12/25 05:38:07;;;;;;;1.40;1.30;;;;;;;2.62;92.65;100148.94;5094403;28;20043;-65
2022/12/25 05:40:38;;;;;;;;;;;;;;;2.56;93.40;100158.78;5096049;28;20127;-65
2022/12/25 05:43:08;;;;;;;1.92;1.77;;;;;;;2.44;93.17;100167.53;5107810;28;20389;-65
2022/12/25 05:45:38;;;;;;;3.90;3.05;;;;;;;2.43;92.79;100171.69;5096440;28;20044;-65
2022/12/25 05:48:07;;;;;;;3.03;1.77;;;;;;;2.46;93.55;100166.78;5102964;28;20059;-65
2022/12/25 05:50:37;;;;;;;1.77;1.65;;;;;;;2.32;92.76;100170.41;5116463;28;20130;-64
2022/12/25 05:53:07;;;;;;;15.63;3.95;;;;;;;2.37;92.40;100171.47;5109835;28;20056;-64
2022/12/25 05:55:37;;;;;;;1.95;1.80;;;;;;;2.39;93.00;100164.81;5108584;28;20040;-64
2022/12/25 05:58:08;;;;;;;8.32;3.50;;;;;;;2.27;92.32;100158.44;5094666;28;20051;-64
2022/12/25 06:00:39;;;;;;;2.63;2.42;;;;;;;2.25;92.38;100163.44;5102178;28;20050;-65
2022/12/25 06:03:07;;;;;;;1.98;1.88;;;;;;;2.25;92.38;100160.91;5110093;28;20088;-67
2022/12/25 06:05:38;;;;;;;1.80;1.52;;;;;;;2.27;93.19;100164.34;5097046;28;20051;-65
2022/12/25 06:08:08;;;;;;;3.05;2.67;;;;;;;2.27;93.15;100155.91;5106828;28;20481;-64
2022/12/25 06:10:36;;;;;;;3.83;2.83;;;;;;;2.37;92.33;100166.44;5095343;28;20037;-65
2022/12/25 06:13:05;;;;;;;1.30;1.20;;;;;;;2.41;92.92;100168.25;5103261;28;20040;-65
2022/12/25 06:15:34;;;;;;;2.67;1.60;;;;;;;2.40;92.84;100174.09;5116002;28;20114;-65
2022/12/25 06:18:04;;;;;;;2.07;1.90;;;;;;;2.41;92.19;100174.94;5111895;28;20505;-65
2022/12/25 06:20:33;;;;;;;1.38;1.30;;;;;;;2.49;92.46;100178.63;5106380;28;20044;-65
2022/12/25 06:23:02;;;;;;;4.03;2.78;;;;;;;2.52;92.39;100177.09;5095575;28;20039;-65
2022/12/25 06:25:31;;;;;;;3.80;2.85;;;;;;;2.49;92.50;100177.00;5109537;28;20039;-65
2022/12/25 06:27:59;;;;;;;0.90;0.90;;;;;;;2.41;92.36;100183.38;5115421;28;20119;-65
2022/12/25 06:30:28;;;;;;;1.60;1.40;;;;;;;2.42;92.61;100184.25;5115362;28;20050;-65
2022/12/25 06:32:58;;;;;;;1.30;1.10;;;;;;;2.46;92.59;100186.94;5115284;28;20043;-65
2022/12/25 06:35:28;;;;;;;2.05;1.85;;;;;;;2.51;93.44;100185.47;5115448;28;20043;-65
2022/12/25 06:37:57;;;;;;;0.60;0.60;;;;;;;2.50;93.09;100188.75;5098428;28;20047;-65
2022/12/25 06:40:26;;;;;;;2.13;2.00;;;;;;;2.51;92.90;100194.66;5094677;28;20044;-65
2022/12/25 06:42:54;;;;;;;2.10;1.25;;;;;;;2.50;92.72;100203.00;5094778;28;20051;-65
2022/12/25 06:45:23;;;;;;;8.57;2.77;;;;;;;2.47;93.05;100188.63;5094981;28;20046;-65
2022/12/25 06:47:52;;;;;;;4.23;1.73;;;;;;;2.56;92.94;100204.13;5094668;28;20148;-65
2022/12/25 06:50:21;;;;;;;1.63;1.53;;;;;;;2.55;92.75;100202.41;5094594;28;20089;-64
2022/12/25 06:52:51;;;;;;;5.90;4.33;;;;;;;2.58;92.76;100202.53;5094618;28;20448;-64
2022/12/25 06:55:19;;;;;;;1.15;1.08;;;;;;;2.60;93.41;100205.97;5094551;28;20056;-64
2022/12/25 06:57:48;;;;;;;2.63;2.13;;;;;;;2.65;92.49;100214.56;5094768;28;20048;-64
2022/12/25 07:00:17;;;;;;;1.05;1.02;;;;;;;2.68;92.79;100219.72;5112195;28;20035;-64
2022/12/25 07:02:48;;;;;;;3.85;3.13;;;;;;;2.69;93.58;100225.59;5114551;28;20043;-65
2022/12/25 07:05:18;;;;;;;5.13;3.08;;;;;;;2.71;93.41;100234.94;5115058;28;20401;-64
2022/12/25 07:07:46;;;;;;;1.43;1.33;;;;;;;2.74;93.44;100244.28;5114236;28;20126;-65
2022/12/25 07:10:16;;;;;;;2.53;2.28;;;;;;;2.79;92.85;100246.97;5115165;28;20043;-64
2022/12/25 07:12:45;;;;;;;2.30;2.13;;;;;;;2.85;93.61;100252.28;5117058;27;20570;-64
2022/12/25 07:15:14;;;;;;;2.05;1.95;;;;;;;2.86;93.46;100239.72;5135074;27;20100;-64
2022/12/25 07:17:43;;;;;;;3.10;2.90;;;;;;;2.91;93.10;100237.38;5135084;27;20035;-64
2022/12/25 07:20:11;;;;;;;1.30;1.23;;;;;;;2.98;93.65;100244.38;5135109;27;20584;-65
2022/12/25 07:22:40;;;;;;;2.53;2.33;;;;;;;3.02;93.04;100252.13;5135346;27;20035;-65
2022/12/25 07:25:09;;;;;;;4.03;3.70;;;;;;;3.07;93.30;100249.78;5135216;27;20400;-64
2022/12/25 07:27:40;;;;;;;3.45;2.25;;;;;;;3.10;93.08;100252.41;5135187;27;20107;-64
2022/12/25 07:30:09;;;;;;;2.83;2.55;;;;;;;3.12;93.80;100253.34;5134918;27;20126;-64
2022/12/25 07:32:38;;;;;;;2.72;1.58;;;;;;;3.14;93.61;100256.78;5134758;27;20035;-64
2022/12/25 07:35:10;;;;;;;3.22;2.92;;;;;;;3.20;93.24;100257.00;5134852;27;20073;-64
2022/12/25 07:37:39;;;;;;;6.30;4.47;;;;;;;3.21;93.58;100254.56;5134706;27;20083;-65
2022/12/25 07:40:09;;;;;;;0.97;0.97;;;;;;;3.18;93.14;100258.59;5134657;27;20035;-65
2022/12/25 07:42:39;;;;;;;3.72;1.77;;;;;;;3.22;93.79;100260.44;5120964;27;20104;-65
2022/12/25 07:45:09;;;;;;;3.90;3.17;;;;;;;3.29;93.39;100264.91;5103753;27;20546;-65
2022/12/25 07:47:38;;;;;;;5.30;4.15;;;;;;;3.35;93.54;100267.66;5109735;28;20153;-65
2022/12/25 07:50:08;;;;;;;3.83;3.50;;;;;;;3.41;93.71;100267.88;5114313;28;20048;-65
2022/12/25 07:52:37;;;;;;;1.77;1.67;;;;;;;3.44;94.06;100259.56;5113940;28;20055;-65
2022/12/25 07:55:11;;;;;;;2.45;2.25;;;;;;;3.47;93.91;100263.06;5111957;28;20150;-65
2022/12/25 07:57:41;;;;;;;6.28;5.00;;;;;;;3.50;94.08;100268.25;5113336;28;20051;-65
2022/12/25 08:00:11;;;;;;;1.77;1.63;;;;;;;3.50;93.42;100273.28;5104725;28;20043;-66
2022/12/25 08:02:40;;;;;;;2.30;1.63;;;;;;;3.55;93.53;100281.84;5113700;28;20052;-65
2022/12/25 08:05:09;;;;;;;;;;;;;;;3.59;93.69;100288.75;5102652;28;20035;-65
2022/12/25 08:07:38;;;;;;;2.17;2.03;;;;;;;3.63;93.97;100285.53;5103330;28;19962;-65
2022/12/25 08:10:08;;;;;;;3.42;2.47;;;;;;;3.70;94.31;100282.41;5101035;28;20029;-66
2022/12/25 08:12:36;;;;;;;;;;;;;;;3.71;93.97;100284.16;5103579;28;20043;-65
2022/12/25 08:15:07;;;;;;;1.73;1.40;;;;;;;3.75;93.85;100282.59;5102498;28;20366;-65
2022/12/25 08:17:36;;;;;;;3.03;2.65;;;;;;;3.73;94.08;100282.53;5107362;28;20052;-66
2022/12/25 08:20:06;;;;;;;2.83;2.38;;;;;;;3.73;93.63;100290.13;5094604;28;20044;-64
2022/12/25 08:22:35;;;;;;;3.25;2.95;;;;;;;3.79;93.97;100287.78;5097094;28;20609;-65
2022/12/25 08:25:05;;;;;;;3.33;2.55;;;;;;;3.82;94.16;100298.00;5097758;28;20039;-66
2022/12/25 08:27:34;;;;;;;3.88;2.63;;;;;;;3.84;94.38;100291.34;5102145;28;20079;-65
2022/12/25 08:30:04;;;;;;;8.15;2.58;;;;;;;3.90;94.12;100290.72;5106251;28;20088;-65
2022/12/25 08:32:34;;;;;;;1.25;1.15;;;;;;;3.86;94.42;100273.75;5108314;28;20495;-65
2022/12/25 08:35:03;;;;;;;2.90;1.95;;;;;;;3.95;94.59;100285.03;5102303;28;20044;-65
2022/12/25 08:37:31;;;;;;;1.55;1.45;;;;;;;3.99;94.57;100296.94;5097377;28;20132;-66
2022/12/25 08:40:00;;;;;;;0.80;0.80;;;;;;;4.02;94.46;100286.97;5100074;28;20040;-66
2022/12/25 08:42:29;;;;;;;2.47;2.27;;;;;;;4.04;94.52;100285.34;5107223;28;20036;-65
2022/12/25 08:44:58;;;;;;;1.10;1.05;;;;;;;4.00;94.45;100287.72;5099560;28;20036;-65
2022/12/25 08:47:26;;;;;;;1.27;1.17;;;;;;;4.02;94.31;100302.13;5104428;28;20096;-66
2022/12/25 08:49:56;;;;;;;2.70;1.60;;;;;;;4.00;94.53;100296.16;5106898;28;20032;-66
2022/12/25 08:52:25;;;;;;;1.33;1.23;;;;;;;3.97;94.78;100288.47;5107506;28;20175;-66
2022/12/25 08:54:55;;;;;;;0.52;0.52;;;;;;;4.01;94.52;100284.34;5102267;28;20040;-65
2022/12/25 08:57:23;;;;;;;2.90;2.17;;;;;;;4.01;94.53;100289.41;5096844;28;20036;-65
2022/12/25 08:59:52;;;;;;;1.45;1.35;;;;;;;3.98;94.52;100290.16;5098601;28;20063;-65
2022/12/25 09:02:21;;;;;;;2.20;2.00;;;;;;;4.01;94.67;100299.50;5101970;28;20040;-65
2022/12/25 09:04:50;;;;;;;2.38;2.20;;;;;;;4.02;94.77;100301.25;5096647;28;20090;-65
2022/12/25 09:07:20;;;;;;;1.03;0.97;;;;;;;4.04;94.69;100305.53;5097438;28;20127;-65
2022/12/25 09:09:49;;;;;;;1.48;1.38;;;;;;;4.07;94.77;100300.59;5100784;28;20040;-65
2022/12/25 09:12:18;;;;;;;2.65;2.40;;;;;;;4.12;94.51;100299.91;5107983;28;20093;-65
2022/12/25 09:14:46;;;;;;;1.17;1.07;;;;;;;4.17;94.89;100291.69;5099784;27;20048;-65
2022/12/25 09:17:15;;;;;;;1.73;1.52;;;;;;;4.29;94.81;100301.34;5107737;28;20093;-65
2022/12/25 09:19:44;;;;;;;5.15;3.10;;;;;;;4.45;95.29;100293.47;5102525;28;20054;-66
2022/12/25 09:22:12;;;;;;;4.10;2.65;;;;;;;4.56;95.14;100297.19;5103235;28;20459;-65
2022/12/25 09:24:43;;;;;;;2.03;1.93;;;;;;;4.68;95.19;100302.66;5112759;28;20118;-65
2022/12/25 09:27:12;;;;;;;1.35;1.25;;;;;;;4.81;95.09;100296.31;5106556;28;20054;-66
2022/12/25 09:29:41;;;;;;;0.57;0.57;;;;;;;4.98;94.88;100288.47;5097688;28;20126;-65
2022/12/25 09:32:10;;;;;;;0.73;0.73;;;;;;;5.21;95.51;100284.97;5100048;28;20055;-66
2022/12/25 09:34:39;;;;;;;0.38;0.38;;;;;;;5.42;95.50;100293.19;5103606;28;20078;-65
2022/12/25 09:37:08;;;;;;;2.97;2.53;;;;;;;5.65;94.97;100296.41;5102841;28;20394;-66
2022/12/25 09:39:37;;;;;;;4.28;2.55;;;;;;;5.81;95.36;100297.69;5098117;28;20044;-66
2022/12/25 09:42:19;;;;;;;1.95;1.80;;;;;;;5.95;95.30;100286.31;5104048;28;20043;-65
2022/12/25 09:44:53;;;;;;;1.20;1.10;;;;;;;6.04;94.96;100286.56;5097057;28;20050;-65
2022/12/25 09:47:26;;;;;;;1.35;1.25;;;;;;;6.09;94.78;100285.00;5102100;28;20046;-66
2022/12/25 09:50:01;;;;;;;1.50;1.38;;;;;;;6.11;95.17;100298.56;5102830;27;20043;-65
2022/12/25 09:52:37;;;;;;;1.38;1.27;;;;;;;6.23;95.47;100303.09;5101845;28;20557;-66
2022/12/25 09:55:12;;;;;;;1.15;1.05;;;;;;;6.34;94.56;100296.63;5107243;28;20054;-65
2022/12/25 09:57:51;;;;;;;3.22;2.60;;;;;;;6.41;95.06;100281.63;5101795;28;20046;-64
2022/12/25 10:00:23;;;;;;;1.15;1.00;;;;;;;6.55;94.41;100292.94;5092188;28;20470;-65
2022/12/25 10:03:10;;;;;;;1.67;1.55;;;;;;;6.53;94.23;100286.13;5101243;28;20101;-64
2022/12/25 10:06:03;;;;;;;1.95;1.83;;;;;;;6.42;94.42;100296.03;5101582;28;20498;-64
2022/12/25 10:08:57;;;;;;;1.58;1.38;;;;;;;6.36;93.46;100298.38;5092979;28;20123;-64
2022/12/25 10:11:39;;;;;;;1.52;1.42;;;;;;;6.31;93.86;100292.31;5095155;28;20046;-64
2022/12/25 10:14:23;;;;;;;1.42;1.33;;;;;;;6.32;93.31;100289.00;5102784;28;20047;-64
2022/12/25 10:17:05;;;;;;;4.28;2.33;;;;;;;6.33;93.13;100295.78;5104428;28;20060;-64
2022/12/25 10:19:44;;;;;;;1.08;1.02;;;;;;;6.37;93.43;100302.66;5093640;28;20050;-65
2022/12/25 10:22:19;;;;;;;0.55;0.55;;;;;;;6.35;93.04;100299.22;5092644;28;20044;-64
2022/12/25 10:24:51;;;;;;;2.45;1.17;;;;;;;6.42;92.13;100301.09;5104485;27;20126;-65
2022/12/25 10:27:25;;;;;;;1.58;1.45;;;;;;;6.46;92.12;100302.00;5095970;28;20040;-64
2022/12/25 10:29:55;;;;;;;1.05;0.98;;;;;;;6.48;92.60;100300.38;5095109;28;20052;-65
2022/12/25 10:32:24;;;;;;;1.00;0.90;;;;;;;6.50;92.64;100299.59;5104607;28;20044;-65
2022/12/25 10:34:53;;;;;;;3.43;1.50;;;;;;;6.48;92.16;100298.69;5103913;28;20134;-64
2022/12/25 10:37:23;;;;;;;1.95;1.83;;;;;;;6.48;92.39;100291.09;5096595;28;20304;-66
2022/12/25 10:39:51;;;;;;;3.80;1.93;;;;;;;6.54;92.54;100288.72;5102993;28;20906;-65
2022/12/25 10:42:33;;;;;;;1.80;1.20;;;;;;;6.59;92.61;100299.84;5091475;28;20044;-64
2022/12/25 10:45:07;;;;;;;0.75;0.75;;;;;;;6.63;92.29;100301.63;5103061;28;20040;-65
2022/12/25 10:47:39;;;;;;;1.45;1.35;;;;;;;6.72;92.33;100291.69;5093570;28;20052;-65
2022/12/25 10:50:12;;;;;;;3.40;2.92;;;;;;;6.74;92.34;100282.44;5110647;28;20054;-64
2022/12/25 10:52:54;;;;;;;2.28;2.08;;;;;;;6.87;92.34;100295.41;5096153;28;20098;-65
2022/12/25 10:55:23;;;;;;;3.15;2.22;;;;;;;6.94;92.33;100297.28;5094556;28;20098;-65
2022/12/25 10:57:57;;;;;;;1.77;1.63;;;;;;;7.00;91.67;100290.69;5095098;28;20453;-65
2022/12/25 11:00:29;;;;;;;2.58;2.38;;;;;;;7.03;92.05;100282.28;5094747;28;20504;-65
2022/12/25 11:02:59;;;;;;;2.67;2.17;;;;;;;7.03;91.66;100283.13;5102038;28;20076;-65
2022/12/25 11:05:30;;;;;;;2.67;2.40;;;;;;;7.07;91.73;100284.06;5096423;28;20119;-65
2022/12/25 11:08:01;;;;;;;1.23;1.13;;;;;;;7.10;91.58;100289.22;5101183;28;20044;-64
2022/12/25 11:10:34;;;;;;;1.02;0.93;;;;;;;7.13;91.67;100285.06;5101818;28;20043;-65
2022/12/25 11:13:05;;;;;;;0.98;0.93;;;;;;;7.22;91.20;100279.34;5095272;28;20067;-66
2022/12/25 11:15:39;;;;;;;0.68;0.68;;;;;;;7.31;91.24;100271.91;5107953;28;20051;-67
2022/12/25 11:18:19;;;;;;;2.38;1.58;;;;;;;7.40;90.85;100272.13;5098680;28;20036;-65
2022/12/25 11:20:50;;;;;;;1.63;1.52;;;;;;;7.44;91.09;100271.34;5100323;28;20048;-65
2022/12/25 11:23:20;;;;;;;0.98;0.95;;;;;;;7.46;91.34;100269.72;5097492;28;20093;-65
2022/12/25 11:25:56;;;;;;;1.38;1.27;;;;;;;7.48;90.51;100262.97;5101180;28;20031;-65
2022/12/25 11:28:26;;;;;;;2.08;1.05;;;;;;;7.48;90.92;100255.38;5107051;28;20046;-64
2022/12/25 11:31:00;;;;;;;2.08;1.60;;;;;;;7.51;90.23;100259.66;5096482;28;20071;-65
2022/12/25 11:33:35;;;;;;;0.93;0.93;;;;;;;7.50;89.86;100250.31;5094317;28;20044;-66
2022/12/25 11:36:15;;;;;;;1.33;1.23;;;;;;;7.52;90.47;100252.06;5107370;28;20042;-65
2022/12/25 11:38:44;;;;;;;1.52;1.42;;;;;;;7.56;89.98;100238.59;5098781;28;20398;-65
2022/12/25 11:41:19;;;;;;;1.20;1.10;;;;;;;7.57;90.14;100235.22;5110318;28;20083;-64
2022/12/25 11:43:55;;;;;;;2.55;1.40;;;;;;;7.61;90.66;100242.06;5092148;28;20061;-65
2022/12/25 11:46:31;;;;;;;1.45;1.27;;;;;;;7.64;90.17;100234.53;5091830;28;20050;-64
2022/12/25 11:49:05;;;;;;;1.40;1.27;;;;;;;7.54;90.70;100207.22;5108982;28;20051;-66
2022/12/25 11:51:38;;;;;;;0.82;0.82;;;;;;;7.76;90.88;100239.84;5108927;28;20052;-65
2022/12/25 11:54:17;;;;;;;3.22;2.88;;;;;;;7.78;89.53;100242.41;5093332;28;20040;-65
2022/12/25 11:56:46;;;;;;;16.63;1.55;;;;;;;7.79;90.29;100239.91;5098027;28;20067;-65
2022/12/25 11:59:21;;;;;;;1.67;1.55;;;;;;;7.67;90.09;100205.78;5101779;28;20516;-65
2022/12/25 12:01:55;;;;;;;1.73;1.42;;;;;;;7.88;90.13;100240.06;5100442;28;20039;-65
2022/12/25 12:04:28;;;;;;;0.65;0.65;;;;;;;7.93;89.69;100237.63;5092233;28;20486;-65
2022/12/25 12:07:07;;;;;;;2.30;2.10;;;;;;;7.98;89.40;100236.03;5097484;28;20098;-66
2022/12/25 12:09:44;;;;;;;0.85;0.85;;;;;;;8.00;90.15;100225.06;5098569;28;20105;-65
2022/12/25 12:12:18;;;;;;;2.00;1.65;;;;;;;8.08;89.33;100220.97;5103913;28;20036;-66
2022/12/25 12:14:51;;;;;;;4.15;1.83;;;;;;;8.13;89.84;100221.06;5103497;28;20048;-64
2022/12/25 12:17:22;;;;;;;0.65;0.65;;;;;;;8.30;89.41;100216.28;5101028;28;20073;-64
2022/12/25 12:19:51;;;;;;;4.43;2.85;;;;;;;8.34;89.75;100216.38;5096490;28;20457;-64
2022/12/25 12:22:23;;;;;;;2.95;2.30;;;;;;;8.39;89.37;100219.84;5093392;28;20131;-65
2022/12/25 12:24:56;;;;;;;1.17;1.08;;;;;;;8.44;89.60;100214.84;5092990;28;20127;-64
2022/12/25 12:27:32;;;;;;;2.25;2.05;;;;;;;8.58;88.79;100211.69;5097770;28;20039;-65
2022/12/25 12:30:01;;;;;;;1.95;1.50;;;;;;;8.96;89.34;100206.28;5093259;28;20474;-65
2022/12/25 12:32:40;;;;;;;0.50;0.50;;;;;;;9.43;89.07;100187.38;5097140;28;20093;-65
2022/12/25 12:35:17;;;;;;;0.82;0.77;;;;;;;9.80;88.26;100193.75;5101846;28;20410;-65
2022/12/25 12:37:50;;;;;;;2.83;1.50;;;;;;;10.17;87.25;100195.88;5096225;28;20089;-65
2022/12/25 12:40:26;;;;;;;1.67;1.58;;;;;;;10.41;85.74;100190.97;5091148;28;20079;-67
2022/12/25 12:42:55;;;;;;;0.73;0.73;;;;;;;10.18;83.81;100187.34;5091029;28;20048;-64
2022/12/25 12:45:28;;;;;;;1.70;1.25;;;;;;;10.02;82.99;100170.19;5092857;28;20044;-65
2022/12/25 12:47:58;;;;;;;1.33;0.95;;;;;;;10.17;82.40;100185.66;5102150;28;20403;-66
2022/12/25 12:50:39;;;;;;;2.00;1.25;;;;;;;10.17;82.26;100184.81;5102126;28;20058;-65
2022/12/25 12:53:28;;;;;;;1.35;1.25;;;;;;;10.13;81.88;100191.56;5059141;28;20067;-65
2022/12/25 12:56:08;;;;;;;3.03;1.83;;;;;;;9.99;81.68;100188.00;5055709;28;20037;-65
2022/12/25 12:58:43;;;;;;;1.52;1.42;;;;;;;9.85;81.75;100192.09;5061330;28;20483;-64
2022/12/25 13:01:35;;;;;;;0.75;0.75;;;;;;;9.72;81.59;100190.25;5051447;28;20033;-66
2022/12/25 13:04:32;;;;;;;1.42;1.13;;;;;;;9.50;82.18;100194.28;5062129;28;20053;-65
2022/12/25 13:07:12;;;;;;;0.73;0.73;;;;;;;9.39;82.88;100201.78;5057062;28;20414;-65
2022/12/25 13:09:58;;;;;;;0.93;0.82;;;;;;;9.31;82.91;100205.91;5078310;28;20368;-64
2022/12/25 13:12:27;;;;;;;2.13;1.55;;;;;;;9.25;82.99;100188.03;5059728;28;20129;-64
2022/12/25 13:14:56;;;;;;;;;;;;;;;9.18;83.47;100181.16;5060004;28;20032;-64
2022/12/25 13:17:26;;;;;;;1.10;1.00;;;;;;;9.10;83.52;100170.00;5070235;28;19924;-64
2022/12/25 13:19:59;;;;;;;1.98;1.80;;;;;;;8.98;83.90;100167.28;5059522;28;20086;-65
2022/12/25 13:22:33;;;;;;;0.73;0.73;;;;;;;8.92;83.75;100167.22;5062084;28;20127;-66
2022/12/25 13:25:05;;;;;;;1.40;1.20;;;;;;;8.88;83.93;100165.44;5055658;28;20049;-65
2022/12/25 13:27:34;;;;;;;0.70;0.57;;;;;;;8.84;84.90;100173.88;5056223;28;20434;-64
2022/12/25 13:30:13;;;;;;;1.05;0.88;;;;;;;8.82;84.37;100165.38;5056198;28;20037;-64
2022/12/25 13:32:44;;;;;;;2.27;2.07;;;;;;;8.83;85.38;100169.63;5056756;28;20055;-64
2022/12/25 13:35:16;;;;;;;2.35;1.48;;;;;;;8.78;84.84;100153.47;5066144;28;20298;-64
2022/12/25 13:37:45;;;;;;;3.60;1.38;;;;;;;8.80;85.57;100146.69;5059755;28;20048;-64
2022/12/25 13:40:23;;;;;;;1.48;1.35;;;;;;;8.78;85.65;100158.53;5072658;28;20399;-64
2022/12/25 13:42:58;;;;;;;0.93;0.82;;;;;;;8.74;85.84;100166.94;5057016;28;20084;-64
2022/12/25 13:45:29;;;;;;;0.80;0.80;;;;;;;8.69;85.61;100160.94;5054643;28;20045;-64